createdAt,value
2017-12-02T00:00:40.042Z,97.74
2017-12-02T00:01:40.034Z,97.36
2017-12-02T00:02:40.025Z,97.17
2017-12-02T00:03:40.015Z,97.17
2017-12-02T00:04:39.989Z,97.36
2017-12-02T00:05:39.983Z,97.36
2017-12-02T00:06:39.978Z,97.17
2017-12-02T00:07:39.958Z,96.88
2017-12-02T00:08:39.946Z,96.88
2017-12-02T00:09:39.928Z,97.36
2017-12-02T00:10:39.921Z,97.17
2017-12-02T00:11:39.901Z,97.45
2017-12-02T00:12:39.894Z,97.17
2017-12-02T00:13:39.874Z,97.36
2017-12-02T00:14:39.867Z,97.36
2017-12-02T00:15:39.864Z,97.26
2017-12-02T00:16:39.841Z,97.26
2017-12-02T00:17:39.832Z,97.17
2017-12-02T00:18:39.820Z,96.97
2017-12-02T00:19:39.802Z,96.97
2017-12-02T00:20:39.781Z,97.26
2017-12-02T00:21:39.769Z,97.17
2017-12-02T00:22:39.766Z,97.26
2017-12-02T00:23:39.757Z,96.88
2017-12-02T00:24:39.747Z,96.97
2017-12-02T00:25:39.719Z,97.36
2017-12-02T00:26:39.715Z,97.55
2017-12-02T00:27:39.699Z,97.55
2017-12-02T00:28:39.687Z,97.55
2017-12-02T00:29:39.670Z,97.26
2017-12-02T00:30:39.656Z,97.55
2017-12-02T00:31:39.651Z,96.97
2017-12-02T00:32:39.630Z,97.36
2017-12-02T00:33:39.616Z,97.26
2017-12-02T00:34:39.603Z,97.74
2017-12-02T00:35:39.597Z,97.59
2017-12-02T00:36:39.588Z,97.55
2017-12-02T00:37:39.560Z,97.26
2017-12-02T00:38:39.550Z,97.36
2017-12-02T00:39:39.539Z,97.36
2017-12-02T00:40:39.268Z,97.74
2017-12-02T00:41:39.511Z,97.45
2017-12-02T00:42:39.499Z,97.83
2017-12-02T00:43:39.491Z,97.55
2017-12-02T00:44:39.483Z,97.74
2017-12-02T00:45:39.475Z,97.36
2017-12-02T00:46:39.459Z,97.36
2017-12-02T00:47:39.447Z,97.45
2017-12-02T00:48:39.426Z,97.36
2017-12-02T00:49:39.414Z,97.74
2017-12-02T00:50:39.406Z,97.64
2017-12-02T00:51:39.388Z,97.74
2017-12-02T00:52:39.372Z,97.55
2017-12-02T00:53:39.370Z,97.36
2017-12-02T00:54:39.346Z,97.36
2017-12-02T00:55:39.349Z,97.36
2017-12-02T00:56:39.069Z,97.36
2017-12-02T00:57:39.311Z,97.55
2017-12-02T00:58:39.289Z,97.26
2017-12-02T00:59:39.290Z,97.26
2017-12-02T01:00:39.268Z,97.36
2017-12-02T01:01:39.252Z,97.36
2017-12-02T01:02:39.249Z,97.64
2017-12-02T01:03:39.239Z,97.36
2017-12-02T01:04:39.222Z,97.17
2017-12-02T01:05:39.206Z,97.26
2017-12-02T01:06:39.198Z,97.83
2017-12-02T01:07:39.183Z,97.55
2017-12-02T01:08:39.168Z,97.36
2017-12-02T01:09:39.157Z,97.74
2017-12-02T01:10:39.136Z,97.55
2017-12-02T01:11:39.130Z,97.5
2017-12-02T01:12:39.120Z,97.64
2017-12-02T01:13:39.106Z,97.92
2017-12-02T01:14:39.090Z,97.97
2017-12-02T01:15:39.074Z,97.88
2017-12-02T01:16:39.064Z,98.07
2017-12-02T01:17:39.051Z,97.69
2017-12-02T01:18:39.033Z,98.44
2017-12-02T01:19:39.026Z,98.16
2017-12-02T01:20:39.009Z,97.88
2017-12-02T01:21:38.998Z,98.35
2017-12-02T01:22:38.728Z,97.78
2017-12-02T01:23:38.964Z,98.02
2017-12-02T01:24:38.960Z,97.69
2017-12-02T01:25:38.941Z,98.02
2017-12-02T01:26:38.928Z,98.02
2017-12-02T01:27:38.918Z,97.88
2017-12-02T01:28:38.907Z,98.02
2017-12-02T01:29:38.888Z,98.11
2017-12-02T01:30:38.901Z,98.11
2017-12-02T01:31:38.865Z,97.83
2017-12-02T01:32:38.849Z,97.83
2017-12-02T01:33:38.836Z,97.83
2017-12-02T01:34:38.834Z,97.64
2017-12-02T01:35:38.820Z,97.74
2017-12-02T01:36:38.800Z,97.74
2017-12-02T01:37:38.788Z,97.74
2017-12-02T01:38:38.771Z,97.74
2017-12-02T01:39:38.757Z,97.74
2017-12-02T01:40:38.753Z,97.83
2017-12-02T01:41:38.735Z,97.17
2017-12-02T01:42:38.718Z,97.36
2017-12-02T01:43:38.704Z,97.07
2017-12-02T01:44:38.439Z,97.64
2017-12-02T01:45:38.686Z,97.36
2017-12-02T01:46:38.672Z,97.55
2017-12-02T01:47:38.661Z,97.55
2017-12-02T01:48:38.651Z,97.83
2017-12-02T01:49:38.640Z,97.64
2017-12-02T01:50:38.616Z,97.74
2017-12-02T01:51:38.605Z,97.64
2017-12-02T01:52:38.595Z,97.64
2017-12-02T01:53:38.328Z,97.55
2017-12-02T01:54:38.576Z,97.45
2017-12-02T01:55:38.564Z,97.64
2017-12-02T01:56:38.551Z,97.17
2017-12-02T01:57:38.525Z,97.17
2017-12-02T01:58:38.517Z,97.36
2017-12-02T01:59:38.501Z,97.36
2017-12-02T02:00:38.485Z,97.26
2017-12-02T02:01:38.478Z,97.55
2017-12-02T02:02:38.464Z,97.17
2017-12-02T02:03:38.453Z,97.26
2017-12-02T02:04:38.453Z,97.64
2017-12-02T02:05:38.550Z,96.88
2017-12-02T02:06:38.417Z,97.17
2017-12-02T02:07:38.404Z,96.88
2017-12-02T02:08:38.393Z,97.36
2017-12-02T02:09:38.382Z,97.26
2017-12-02T02:10:38.361Z,97.17
2017-12-02T02:11:38.351Z,97.17
2017-12-02T02:12:38.343Z,97.17
2017-12-02T02:13:38.331Z,97.45
2017-12-02T02:14:38.318Z,97.17
2017-12-02T02:15:38.298Z,97.26
2017-12-02T02:16:38.296Z,97.17
2017-12-02T02:17:38.280Z,97.36
2017-12-02T02:18:38.264Z,97.26
2017-12-02T02:19:38.243Z,97.12
2017-12-02T02:20:38.234Z,97.36
2017-12-02T02:21:38.238Z,97.5
2017-12-02T02:22:38.212Z,97.31
2017-12-02T02:23:38.193Z,97.12
2017-12-02T02:24:38.191Z,97.21
2017-12-02T02:25:37.910Z,97.88
2017-12-02T02:26:38.164Z,97.31
2017-12-02T02:27:38.143Z,97.17
2017-12-02T02:28:38.140Z,97.07
2017-12-02T02:29:38.126Z,97.31
2017-12-02T02:30:38.111Z,97.26
2017-12-02T02:31:38.099Z,97.12
2017-12-02T02:32:38.088Z,97.12
2017-12-02T02:33:38.060Z,97.97
2017-12-02T02:34:38.072Z,97.21
2017-12-02T02:35:38.049Z,97.5
2017-12-02T02:36:38.036Z,97.4
2017-12-02T02:37:38.020Z,97.12
2017-12-02T02:38:37.999Z,97.69
2017-12-02T02:39:37.992Z,97.31
2017-12-02T02:40:37.986Z,97.78
2017-12-02T02:41:37.969Z,97.59
2017-12-02T02:42:37.943Z,97.31
2017-12-02T02:43:37.935Z,97.31
2017-12-02T02:44:37.937Z,97.69
2017-12-02T02:45:37.908Z,97.88
2017-12-02T02:46:37.893Z,97.78
2017-12-02T02:47:37.890Z,97.5
2017-12-02T02:48:37.869Z,97.88
2017-12-02T02:49:37.614Z,97.69
2017-12-02T02:50:37.852Z,97.88
2017-12-02T02:51:37.844Z,97.69
2017-12-02T02:52:37.825Z,97.88
2017-12-02T02:53:37.813Z,97.69
2017-12-02T02:54:37.802Z,98.02
2017-12-02T02:55:37.781Z,97.78
2017-12-02T02:56:37.771Z,97.5
2017-12-02T02:57:37.766Z,97.45
2017-12-02T02:58:37.751Z,97.4
2017-12-02T02:59:37.735Z,97.4
2017-12-02T03:00:37.720Z,97.69
2017-12-02T03:01:37.707Z,97.4
2017-12-02T03:02:37.694Z,97.59
2017-12-02T03:03:37.680Z,97.36
2017-12-02T03:04:37.673Z,97.5
2017-12-02T03:05:37.650Z,97.69
2017-12-02T03:06:37.641Z,97.31
2017-12-02T03:07:37.626Z,97.21
2017-12-02T03:08:37.609Z,97.31
2017-12-02T03:09:37.608Z,97.36
2017-12-02T03:10:37.585Z,97.64
2017-12-02T03:11:37.572Z,97.5
2017-12-02T03:12:37.556Z,97.45
2017-12-02T03:13:37.542Z,97.69
2017-12-02T03:14:37.539Z,97.36
2017-12-02T03:15:37.519Z,97.31
2017-12-02T03:16:37.507Z,97.88
2017-12-02T03:17:37.490Z,97.59
2017-12-02T03:18:37.476Z,97.69
2017-12-02T03:19:37.478Z,97.59
2017-12-02T03:20:37.457Z,97.78
2017-12-02T03:21:37.450Z,97.69
2017-12-02T03:22:37.431Z,97.5
2017-12-02T03:23:37.419Z,97.88
2017-12-02T03:24:37.405Z,98.07
2017-12-02T03:25:37.132Z,97.59
2017-12-02T03:26:37.371Z,97.88
2017-12-02T03:27:37.363Z,98.35
2017-12-02T03:28:37.363Z,97.78
2017-12-02T03:29:37.332Z,97.97
2017-12-02T03:30:37.326Z,97.88
2017-12-02T03:31:37.319Z,97.88
2017-12-02T03:32:37.294Z,97.88
2017-12-02T03:33:37.035Z,97.59
2017-12-02T03:34:37.284Z,97.88
2017-12-02T03:35:37.264Z,97.88
2017-12-02T03:36:37.249Z,97.97
2017-12-02T03:37:37.234Z,98.16
2017-12-02T03:38:37.213Z,98.07
2017-12-02T03:39:37.203Z,98.07
2017-12-02T03:40:37.194Z,97.78
2017-12-02T03:41:37.186Z,97.97
2017-12-02T03:42:37.172Z,97.97
2017-12-02T03:43:37.163Z,97.88
2017-12-02T03:44:37.156Z,97.78
2017-12-02T03:45:37.127Z,97.97
2017-12-02T03:46:37.120Z,98.07
2017-12-02T03:47:37.100Z,97.88
2017-12-02T03:48:36.837Z,97.59
2017-12-02T03:49:36.821Z,97.69
2017-12-02T03:50:37.069Z,98.25
2017-12-02T03:51:37.049Z,98.16
2017-12-02T03:52:37.042Z,98.16
2017-12-02T03:53:37.026Z,98.07
2017-12-02T03:54:37.018Z,98.07
2017-12-02T03:55:37.001Z,98.35
2017-12-02T03:56:36.982Z,97.78
2017-12-02T03:57:36.966Z,97.69
2017-12-02T03:58:36.960Z,98.07
2017-12-02T03:59:36.951Z,98.35
2017-12-02T04:00:36.926Z,98.07
2017-12-02T04:01:36.923Z,98.07
2017-12-02T04:02:36.905Z,98.25
2017-12-02T04:03:36.904Z,98.25
2017-12-02T04:04:36.879Z,97.97
2017-12-02T04:05:36.609Z,98.44
2017-12-02T04:06:36.594Z,98.16
2017-12-02T04:07:36.836Z,98.25
2017-12-02T04:08:36.575Z,98.73
2017-12-02T04:09:36.813Z,98.82
2017-12-02T04:10:36.544Z,99.01
2017-12-02T04:11:36.793Z,98.82
2017-12-02T04:12:36.781Z,98.92
2017-12-02T04:13:36.506Z,98.92
2017-12-02T04:14:36.752Z,98.73
2017-12-02T04:15:36.733Z,98.73
2017-12-02T04:16:36.731Z,98.82
2017-12-02T04:17:36.712Z,98.63
2017-12-02T04:18:36.700Z,98.35
2017-12-02T04:19:36.678Z,98.3
2017-12-02T04:20:36.677Z,98.82
2017-12-02T04:21:36.660Z,98.82
2017-12-02T04:22:36.639Z,98.73
2017-12-02T04:23:36.633Z,98.25
2017-12-02T04:24:36.617Z,98.25
2017-12-02T04:25:36.691Z,98.25
2017-12-02T04:26:36.588Z,98.44
2017-12-02T04:27:36.592Z,98.73
2017-12-02T04:28:36.571Z,98.82
2017-12-02T04:29:36.555Z,98.63
2017-12-02T04:30:36.545Z,98.54
2017-12-02T04:31:36.531Z,98.73
2017-12-02T04:32:36.522Z,98.78
2017-12-02T04:33:36.506Z,98.49
2017-12-02T04:34:36.486Z,98.4
2017-12-02T04:35:36.471Z,98.3
2017-12-02T04:36:36.458Z,98.3
2017-12-02T04:37:36.199Z,98.16
2017-12-02T04:38:36.431Z,98.02
2017-12-02T04:39:36.422Z,98.02
2017-12-02T04:40:36.406Z,98.02
2017-12-02T04:41:36.406Z,97.64
2017-12-02T04:42:36.385Z,97.83
2017-12-02T04:43:36.371Z,98.21
2017-12-02T04:44:36.362Z,98.3
2017-12-02T04:45:36.346Z,98.78
2017-12-02T04:46:36.335Z,98.68
2017-12-02T04:47:36.063Z,98.4
2017-12-02T04:48:36.303Z,98.21
2017-12-02T04:49:36.295Z,98.11
2017-12-02T04:50:36.280Z,98.3
2017-12-02T04:51:36.272Z,98.21
2017-12-02T04:52:36.259Z,98.02
2017-12-02T04:53:36.663Z,98.59
2017-12-02T04:54:36.231Z,98.11
2017-12-02T04:55:36.219Z,97.92
2017-12-02T04:56:36.201Z,98.02
2017-12-02T04:57:36.187Z,98.02
2017-12-02T04:58:36.182Z,98.3
2017-12-02T04:59:36.162Z,98.02
2017-12-02T05:00:36.146Z,97.83
2017-12-02T05:01:36.137Z,98.3
2017-12-02T05:02:36.129Z,98.3
2017-12-02T05:03:36.120Z,98.21
2017-12-02T05:04:36.100Z,98.87
2017-12-02T05:05:36.091Z,98.78
2017-12-02T05:06:36.089Z,98.78
2017-12-02T05:07:36.069Z,98.59
2017-12-02T05:08:36.051Z,98.68
2017-12-02T05:09:36.041Z,98.68
2017-12-02T05:10:36.021Z,98.49
2017-12-02T05:11:36.014Z,98.59
2017-12-02T05:12:36.000Z,98.49
2017-12-02T05:13:35.982Z,98.4
2017-12-02T05:14:35.974Z,98.68
2017-12-02T05:15:35.963Z,98.68
2017-12-02T05:16:35.938Z,98.59
2017-12-02T05:17:35.936Z,98.59
2017-12-02T05:18:35.921Z,98.49
2017-12-02T05:19:35.904Z,98.59
2017-12-02T05:20:35.893Z,98.59
2017-12-02T05:21:35.885Z,98.49
2017-12-02T05:22:35.876Z,98.59
2017-12-02T05:23:35.857Z,98.59
2017-12-02T05:24:35.845Z,98.87
2017-12-02T05:25:35.822Z,98.59
2017-12-02T05:26:35.818Z,98.49
2017-12-02T05:27:35.802Z,98.49
2017-12-02T05:28:35.787Z,98.59
2017-12-02T05:29:35.783Z,98.49
2017-12-02T05:30:35.770Z,98.49
2017-12-02T05:31:35.748Z,98.97
2017-12-02T05:32:35.737Z,98.78
2017-12-02T05:33:35.718Z,98.59
2017-12-02T05:34:35.708Z,98.59
2017-12-02T05:35:35.442Z,99.06
2017-12-02T05:36:35.693Z,98.59
2017-12-02T05:37:35.670Z,99.06
2017-12-02T05:38:35.664Z,98.21
2017-12-02T05:39:35.651Z,98.49
2017-12-02T05:40:35.640Z,97.83
2017-12-02T05:41:35.627Z,98.3
2017-12-02T05:42:35.604Z,98.11
2017-12-02T05:43:35.593Z,98.21
2017-12-02T05:44:35.589Z,97.92
2017-12-02T05:45:35.566Z,98.49
2017-12-02T05:46:35.560Z,98.49
2017-12-02T05:47:35.555Z,98.11
2017-12-02T05:48:35.527Z,98.4
2017-12-02T05:49:35.516Z,98.4
2017-12-02T05:50:35.503Z,98.4
2017-12-02T05:51:35.504Z,98.4
2017-12-02T05:52:35.225Z,98.21
2017-12-02T05:53:35.484Z,98.11
2017-12-02T05:54:35.465Z,98.3
2017-12-02T05:55:35.452Z,98.3
2017-12-02T05:56:35.440Z,98.02
2017-12-02T05:57:35.168Z,98.3
2017-12-02T05:58:35.403Z,98.3
2017-12-02T05:59:35.393Z,98.3
2017-12-02T06:00:35.385Z,98.3
2017-12-02T06:01:35.369Z,98.21
2017-12-02T06:02:35.366Z,98.11
2017-12-02T06:03:35.341Z,98.21
2017-12-02T06:04:35.336Z,98.87
2017-12-02T06:05:35.319Z,99.06
2017-12-02T06:06:35.308Z,99.06
2017-12-02T06:07:35.287Z,98.87
2017-12-02T06:08:35.277Z,98.87
2017-12-02T06:09:35.264Z,98.4
2017-12-02T06:10:34.991Z,98.21
2017-12-02T06:11:35.236Z,98.21
2017-12-02T06:12:35.229Z,97.92
2017-12-02T06:13:34.960Z,98.4
2017-12-02T06:14:34.948Z,99.06
2017-12-02T06:15:35.186Z,98.49
2017-12-02T06:16:35.182Z,99.06
2017-12-02T06:17:35.163Z,98.78
2017-12-02T06:18:35.147Z,98.87
2017-12-02T06:19:35.136Z,98.68
2017-12-02T06:20:35.138Z,99.16
2017-12-02T06:21:35.114Z,98.68
2017-12-02T06:22:35.095Z,98.78
2017-12-02T06:23:35.091Z,98.87
2017-12-02T06:24:35.077Z,98.97
2017-12-02T06:25:35.060Z,98.68
2017-12-02T06:26:35.046Z,98.4
2017-12-02T06:27:35.035Z,98.49
2017-12-02T06:28:34.765Z,98.49
2017-12-02T06:29:35.005Z,98.59
2017-12-02T06:30:34.991Z,98.87
2017-12-02T06:31:34.988Z,98.49
2017-12-02T06:32:34.972Z,98.4
2017-12-02T06:33:34.952Z,98.4
2017-12-02T06:34:34.943Z,98.87
2017-12-02T06:35:34.934Z,98.68
2017-12-02T06:36:34.922Z,98.87
2017-12-02T06:37:34.918Z,98.87
2017-12-02T06:38:34.895Z,98.4
2017-12-02T06:39:34.873Z,98.4
2017-12-02T06:40:34.870Z,98.49
2017-12-02T06:41:34.860Z,98.49
2017-12-02T06:42:34.852Z,98.78
2017-12-02T06:43:34.832Z,98.68
2017-12-02T06:44:34.815Z,99.06
2017-12-02T06:45:34.811Z,99.06
2017-12-02T06:46:34.786Z,99.16
2017-12-02T06:47:34.786Z,98.87
2017-12-02T06:48:34.767Z,99.06
2017-12-02T06:49:34.756Z,98.49
2017-12-02T06:50:34.745Z,98.87
2017-12-02T06:51:34.726Z,99.06
2017-12-02T06:52:34.713Z,98.68
2017-12-02T06:53:34.720Z,98.49
2017-12-02T06:54:34.687Z,98.49
2017-12-02T06:55:34.683Z,98.68
2017-12-02T06:56:34.670Z,98.59
2017-12-02T06:57:34.647Z,98.68
2017-12-02T06:58:34.634Z,98.59
2017-12-02T06:59:34.631Z,98.59
2017-12-02T07:00:34.609Z,98.59
2017-12-02T07:01:34.606Z,98.59
2017-12-02T07:02:34.593Z,98.78
2017-12-02T07:03:34.582Z,98.68
2017-12-02T07:04:34.568Z,98.59
2017-12-02T07:05:34.549Z,98.59
2017-12-02T07:06:34.541Z,98.49
2017-12-02T07:07:34.521Z,98.49
2017-12-02T07:08:34.523Z,98.59
2017-12-02T07:09:34.503Z,98.49
2017-12-02T07:10:34.479Z,98.68
2017-12-02T07:11:34.222Z,98.59
2017-12-02T07:12:34.462Z,98.87
2017-12-02T07:13:34.464Z,98.97
2017-12-02T07:14:34.177Z,98.59
2017-12-02T07:15:34.169Z,98.59
2017-12-02T07:16:34.150Z,98.59
2017-12-02T07:17:34.139Z,98.97
2017-12-02T07:18:34.124Z,98.78
2017-12-02T07:19:34.370Z,98.87
2017-12-02T07:20:34.365Z,98.11
2017-12-02T07:21:34.349Z,98.49
2017-12-02T07:22:34.330Z,98.3
2017-12-02T07:23:34.314Z,98.78
2017-12-02T07:24:34.314Z,99.06
2017-12-02T07:25:34.292Z,98.87
2017-12-02T07:26:34.288Z,98.78
2017-12-02T07:27:34.274Z,98.87
2017-12-02T07:28:34.258Z,97.92
2017-12-02T07:29:34.238Z,98.3
2017-12-02T07:30:34.242Z,98.3
2017-12-02T07:31:34.227Z,98.3
2017-12-02T07:32:34.212Z,98.11
2017-12-02T07:33:34.202Z,98.21
2017-12-02T07:34:34.188Z,98.07
2017-12-02T07:35:34.174Z,98.11
2017-12-02T07:36:34.166Z,97.78
2017-12-02T07:37:34.160Z,97.97
2017-12-02T07:38:34.132Z,98.07
2017-12-02T07:39:34.123Z,98.07
2017-12-02T07:40:34.111Z,97.5
2017-12-02T07:41:34.097Z,97.22
2017-12-02T07:42:34.082Z,97.41
2017-12-02T07:43:34.068Z,97.5
2017-12-02T07:44:34.111Z,97.6
2017-12-02T07:45:34.051Z,97.31
2017-12-02T07:46:34.037Z,97.6
2017-12-02T07:47:34.026Z,97.5
2017-12-02T07:48:34.016Z,97.6
2017-12-02T07:49:34.003Z,97.97
2017-12-02T07:50:33.997Z,97.41
2017-12-02T07:51:33.723Z,97.41
2017-12-02T07:52:33.957Z,97.31
2017-12-02T07:53:33.699Z,97.22
2017-12-02T07:54:33.938Z,97.02
2017-12-02T07:55:33.919Z,96.74
2017-12-02T07:56:33.919Z,97.17
2017-12-02T07:57:33.906Z,96.69
2017-12-02T07:58:33.879Z,96.88
2017-12-02T07:59:33.878Z,96.22
2017-12-02T08:00:33.868Z,96.41
2017-12-02T08:01:33.893Z,96.88
2017-12-02T08:02:33.582Z,96.5
2017-12-02T08:03:33.828Z,96.03
2017-12-02T08:04:33.814Z,96.22
2017-12-02T08:05:33.804Z,96.31
2017-12-02T08:06:33.796Z,96.31
2017-12-02T08:07:33.780Z,96.12
2017-12-02T08:08:33.763Z,96.22
2017-12-02T08:09:33.750Z,96.03
2017-12-02T08:10:33.740Z,95.84
2017-12-02T08:11:33.738Z,95.75
2017-12-02T08:12:33.714Z,95.55
2017-12-02T08:13:33.718Z,95.55
2017-12-02T08:14:33.699Z,95.55
2017-12-02T08:15:33.677Z,95.55
2017-12-02T08:16:33.667Z,95.84
2017-12-02T08:17:33.657Z,95.55
2017-12-02T08:18:33.712Z,95.65
2017-12-02T08:19:33.640Z,95.84
2017-12-02T08:20:33.366Z,95.84
2017-12-02T08:21:33.610Z,95.84
2017-12-02T08:22:33.600Z,95.08
2017-12-02T08:23:33.586Z,95.08
2017-12-02T08:24:33.588Z,94.89
2017-12-02T08:25:33.574Z,94.79
2017-12-02T08:26:33.567Z,94.7
2017-12-02T08:27:33.552Z,94.51
2017-12-02T08:28:33.535Z,94.46
2017-12-02T08:29:33.527Z,94.56
2017-12-02T08:30:33.516Z,94.42
2017-12-02T08:31:33.508Z,94.56
2017-12-02T08:32:33.488Z,94.51
2017-12-02T08:33:33.487Z,94.27
2017-12-02T08:34:33.470Z,93.7
2017-12-02T08:35:33.452Z,93.79
2017-12-02T08:36:33.462Z,93.79
2017-12-02T08:37:33.431Z,93.51
2017-12-02T08:38:33.414Z,93.99
2017-12-02T08:39:33.414Z,93.89
2017-12-02T08:40:33.397Z,93.6
2017-12-02T08:41:33.386Z,93.6
2017-12-02T08:42:33.378Z,93.51
2017-12-02T08:43:33.371Z,93.32
2017-12-02T08:44:33.358Z,93.13
2017-12-02T08:45:33.339Z,93.04
2017-12-02T08:46:33.337Z,92.85
2017-12-02T08:47:33.326Z,92.75
2017-12-02T08:48:33.314Z,92.66
2017-12-02T08:49:33.294Z,92.66
2017-12-02T08:50:33.296Z,92.46
2017-12-02T08:51:33.273Z,93.32
2017-12-02T08:52:33.263Z,92.75
2017-12-02T08:53:33.250Z,92.37
2017-12-02T08:54:33.246Z,92.32
2017-12-02T08:55:33.240Z,92.66
2017-12-02T08:56:33.222Z,92.7
2017-12-02T08:57:33.213Z,92.8
2017-12-02T08:58:33.200Z,92.61
2017-12-02T08:59:33.197Z,92.51
2017-12-02T09:00:33.175Z,92.51
2017-12-02T09:01:33.163Z,92.51
2017-12-02T09:02:33.155Z,92.51
2017-12-02T09:03:33.152Z,92.61
2017-12-02T09:04:33.260Z,91.94
2017-12-02T09:05:33.133Z,92.03
2017-12-02T09:06:33.113Z,92.32
2017-12-02T09:07:33.149Z,92.22
2017-12-02T09:08:33.107Z,91.85
2017-12-02T09:09:33.095Z,91.66
2017-12-02T09:10:33.087Z,91.75
2017-12-02T09:11:33.059Z,92.03
2017-12-02T09:12:33.050Z,91.37
2017-12-02T09:13:33.039Z,91.56
2017-12-02T09:14:33.043Z,91.56
2017-12-02T09:15:33.020Z,92.22
2017-12-02T09:16:32.754Z,92.13
2017-12-02T09:17:32.995Z,91.94
2017-12-02T09:18:32.988Z,91.37
2017-12-02T09:19:32.986Z,91.32
2017-12-02T09:20:32.968Z,91.99
2017-12-02T09:21:32.700Z,91.22
2017-12-02T09:22:32.960Z,91.13
2017-12-02T09:23:32.946Z,91.32
2017-12-02T09:24:32.935Z,91.22
2017-12-02T09:25:32.925Z,91.08
2017-12-02T09:26:32.909Z,91.28
2017-12-02T09:27:32.905Z,91.37
2017-12-02T09:28:32.905Z,91.85
2017-12-02T09:29:32.883Z,91.8
2017-12-02T09:30:32.870Z,91.75
2017-12-02T09:31:32.852Z,91.75
2017-12-02T09:32:32.842Z,91.56
2017-12-02T09:33:32.864Z,91.42
2017-12-02T09:34:32.832Z,90.94
2017-12-02T09:35:32.814Z,91.18
2017-12-02T09:36:32.809Z,91.32
2017-12-02T09:37:32.801Z,91.32
2017-12-02T09:38:32.781Z,90.89
2017-12-02T09:39:32.779Z,91.03
2017-12-02T09:40:32.768Z,91.32
2017-12-02T09:41:32.754Z,91.22
2017-12-02T09:42:32.742Z,91.42
2017-12-02T09:43:32.733Z,90.8
2017-12-02T09:44:32.721Z,91.37
2017-12-02T09:45:32.722Z,91.75
2017-12-02T09:46:32.711Z,91.37
2017-12-02T09:47:32.690Z,91.28
2017-12-02T09:48:32.680Z,90.99
2017-12-02T09:49:32.684Z,91.08
2017-12-02T09:50:32.660Z,91.28
2017-12-02T09:51:32.645Z,91.37
2017-12-02T09:52:32.642Z,90.99
2017-12-02T09:53:32.627Z,90.99
2017-12-02T09:54:32.630Z,90.84
2017-12-02T09:55:32.625Z,91.03
2017-12-02T09:56:32.598Z,91.22
2017-12-02T09:57:32.647Z,91.03
2017-12-02T09:58:32.326Z,90.94
2017-12-02T09:59:32.576Z,90.66
2017-12-02T10:00:32.564Z,90.94
2017-12-02T10:01:32.556Z,90.47
2017-12-02T10:02:32.546Z,90.66
2017-12-02T10:03:32.535Z,90.56
2017-12-02T10:04:32.522Z,90.08
2017-12-02T10:05:32.510Z,90.08
2017-12-02T10:06:32.501Z,90.37
2017-12-02T10:07:32.487Z,90.28
2017-12-02T10:08:32.230Z,90.37
2017-12-02T10:09:32.481Z,90.28
2017-12-02T10:10:32.466Z,90.37
2017-12-02T10:11:32.443Z,90.08
2017-12-02T10:12:32.444Z,89.89
2017-12-02T10:13:32.173Z,90.37
2017-12-02T10:14:32.425Z,89.99
2017-12-02T10:15:32.413Z,90.08
2017-12-02T10:16:32.400Z,89.99
2017-12-02T10:17:32.393Z,90.84
2017-12-02T10:18:32.382Z,90.66
2017-12-02T10:19:32.370Z,90.94
2017-12-02T10:20:32.364Z,90.75
2017-12-02T10:21:32.359Z,90.66
2017-12-02T10:22:32.337Z,90.66
2017-12-02T10:23:32.324Z,90.66
2017-12-02T10:24:32.324Z,90.56
2017-12-02T10:25:32.312Z,90.75
2017-12-02T10:26:32.312Z,90.56
2017-12-02T10:27:32.295Z,90.94
2017-12-02T10:28:32.287Z,90.94
2017-12-02T10:29:32.275Z,90.75
2017-12-02T10:30:32.263Z,91.03
2017-12-02T10:31:32.254Z,91.32
2017-12-02T10:32:32.233Z,91.22
2017-12-02T10:33:32.237Z,91.03
2017-12-02T10:34:32.228Z,91.13
2017-12-02T10:35:32.202Z,91.08
2017-12-02T10:36:32.207Z,90.99
2017-12-02T10:37:32.184Z,91.47
2017-12-02T10:38:32.171Z,91.28
2017-12-02T10:39:32.166Z,91.56
2017-12-02T10:40:32.161Z,92.03
2017-12-02T10:41:32.149Z,92.13
2017-12-02T10:42:32.134Z,92.03
2017-12-02T10:43:32.132Z,91.94
2017-12-02T10:44:32.122Z,92.32
2017-12-02T10:45:32.402Z,92.22
2017-12-02T10:46:32.101Z,92.32
2017-12-02T10:47:32.077Z,92.22
2017-12-02T10:48:32.083Z,92.27
2017-12-02T10:49:32.075Z,91.89
2017-12-02T10:50:32.059Z,93.04
2017-12-02T10:51:32.045Z,92.66
2017-12-02T10:52:32.036Z,93.04
2017-12-02T10:53:32.017Z,93.41
2017-12-02T10:54:32.018Z,93.6
2017-12-02T10:55:31.998Z,93.32
2017-12-02T10:56:31.984Z,93.99
2017-12-02T10:57:31.976Z,94.27
2017-12-02T10:58:31.993Z,94.32
2017-12-02T10:59:31.960Z,94.32
2017-12-02T11:00:31.955Z,94.32
2017-12-02T11:01:31.935Z,94.51
2017-12-02T11:02:31.922Z,94.42
2017-12-02T11:03:31.925Z,94.13
2017-12-02T11:04:31.648Z,94.42
2017-12-02T11:05:31.894Z,94.03
2017-12-02T11:06:31.892Z,94.42
2017-12-02T11:07:31.866Z,94.42
2017-12-02T11:08:31.858Z,94.98
2017-12-02T11:09:31.856Z,94.98
2017-12-02T11:10:31.849Z,94.79
2017-12-02T11:11:31.830Z,95.17
2017-12-02T11:12:31.814Z,94.13
2017-12-02T11:13:31.804Z,94.18
2017-12-02T11:14:31.537Z,94.27
2017-12-02T11:15:31.779Z,94.37
2017-12-02T11:16:31.780Z,94.27
2017-12-02T11:17:31.755Z,93.99
2017-12-02T11:18:31.789Z,93.79
2017-12-02T11:19:31.752Z,93.41
2017-12-02T11:20:31.726Z,93.41
2017-12-02T11:21:31.731Z,93.6
2017-12-02T11:22:31.732Z,93.6
2017-12-02T11:23:31.706Z,93.6
2017-12-02T11:24:31.770Z,93.32
2017-12-02T11:25:31.742Z,93.23
2017-12-02T11:26:31.667Z,93.27
2017-12-02T11:27:31.676Z,93.04
2017-12-02T11:28:31.698Z,93.41
2017-12-02T11:29:31.639Z,93.08
2017-12-02T11:30:31.628Z,93.32
2017-12-02T11:31:31.608Z,93.04
2017-12-02T11:32:31.345Z,92.7
2017-12-02T11:33:31.624Z,92.94
2017-12-02T11:34:31.593Z,92.75
2017-12-02T11:35:31.567Z,92.94
2017-12-02T11:36:31.309Z,92.89
2017-12-02T11:37:31.599Z,92.41
2017-12-02T11:38:31.551Z,92.32
2017-12-02T11:39:31.528Z,92.08
2017-12-02T11:40:31.541Z,92.37
2017-12-02T11:41:31.526Z,92.08
2017-12-02T11:42:31.532Z,92.08
2017-12-02T11:43:31.495Z,92.08
2017-12-02T11:44:31.525Z,92.27
2017-12-02T11:45:31.466Z,92.32
2017-12-02T11:46:31.457Z,92.22
2017-12-02T11:47:31.441Z,92.32
2017-12-02T11:48:31.434Z,92.03
2017-12-02T11:49:31.160Z,91.94
2017-12-02T11:50:31.421Z,91.56
2017-12-02T11:51:31.414Z,92.13
2017-12-02T11:52:31.399Z,92.22
2017-12-02T11:53:31.420Z,92.03
2017-12-02T11:54:31.422Z,91.94
2017-12-02T11:55:31.359Z,91.75
2017-12-02T11:56:31.344Z,91.75
2017-12-02T11:57:31.339Z,91.94
2017-12-02T11:58:31.315Z,92.61
2017-12-02T11:59:31.307Z,92.51
2017-12-02T12:00:31.302Z,92.03
2017-12-02T12:01:31.032Z,92.13
2017-12-02T12:02:31.277Z,92.32
2017-12-02T12:03:31.259Z,92.51
2017-12-02T12:04:31.262Z,92.51
2017-12-02T12:05:31.248Z,92.13
2017-12-02T12:06:31.237Z,92.41
2017-12-02T12:07:31.220Z,92.51
2017-12-02T12:08:31.209Z,92.51
2017-12-02T12:09:31.195Z,91.94
2017-12-02T12:10:31.195Z,92.32
2017-12-02T12:11:30.933Z,92.51
2017-12-02T12:12:31.175Z,92.51
2017-12-02T12:13:31.166Z,92.61
2017-12-02T12:14:31.144Z,92.32
2017-12-02T12:15:31.143Z,92.13
2017-12-02T12:16:31.133Z,92.32
2017-12-02T12:17:31.110Z,91.94
2017-12-02T12:18:31.112Z,91.94
2017-12-02T12:19:31.107Z,92.32
2017-12-02T12:20:31.087Z,92.22
2017-12-02T12:21:31.091Z,92.32
2017-12-02T12:22:31.071Z,92.32
2017-12-02T12:23:30.796Z,92.22
2017-12-02T12:24:31.041Z,92.41
2017-12-02T12:25:30.783Z,92.37
2017-12-02T12:26:31.030Z,92.37
2017-12-02T12:27:31.057Z,91.94
2017-12-02T12:28:31.000Z,92.18
2017-12-02T12:29:30.983Z,92.61
2017-12-02T12:30:30.986Z,92.22
2017-12-02T12:31:30.977Z,92.8
2017-12-02T12:32:30.949Z,92.85
2017-12-02T12:33:30.946Z,92.89
2017-12-02T12:34:30.963Z,92.89
2017-12-02T12:35:30.935Z,92.22
2017-12-02T12:36:30.907Z,92.18
2017-12-02T12:37:30.895Z,93.13
2017-12-02T12:38:30.894Z,92.85
2017-12-02T12:39:30.881Z,92.8
2017-12-02T12:40:30.890Z,92.75
2017-12-02T12:41:30.864Z,92.7
2017-12-02T12:42:30.847Z,92.7
2017-12-02T12:43:30.842Z,92.66
2017-12-02T12:44:30.821Z,92.85
2017-12-02T12:45:30.554Z,92.75
2017-12-02T12:46:30.802Z,92.75
2017-12-02T12:47:30.542Z,92.85
2017-12-02T12:48:30.776Z,92.37
2017-12-02T12:49:30.771Z,92.66
2017-12-02T12:50:30.774Z,92.56
2017-12-02T12:51:30.752Z,92.85
2017-12-02T12:52:30.486Z,92.85
2017-12-02T12:53:30.733Z,93.04
2017-12-02T12:54:30.718Z,92.89